sensor_id;sensor_type;location;lat;lon;timestamp;P1;durP1;ratioP1;P2;durP2;ratioP2
37543;SDS011;23385;52.038;20.322;2022-10-15T00:00:33;133.67;;;71.50;;
37543;SDS011;23385;52.038;20.322;2022-10-15T00:03:00;130.40;;;69.03;;
37543;SDS011;23385;52.038;20.322;2022-10-15T00:05:28;132.83;;;72.03;;
37543;SDS011;23385;52.038;20.322;2022-10-15T00:07:55;93.83;;;57.70;;
37543;SDS011;23385;52.038;20.322;2022-10-15T00:10:21;105.10;;;60.87;;
37543;SDS011;23385;52.038;20.322;2022-10-15T00:12:48;117.10;;;67.20;;
37543;SDS011;23385;52.038;20.322;2022-10-15T00:15:17;112.67;;;63.13;;
37543;SDS011;23385;52.038;20.322;2022-10-15T00:17:43;98.43;;;62.00;;
37543;SDS011;23385;52.038;20.322;2022-10-15T00:20:10;113.50;;;66.30;;
37543;SDS011;23385;52.038;20.322;2022-10-15T00:22:38;110.83;;;63.73;;
37543;SDS011;23385;52.038;20.322;2022-10-15T00:25:04;102.47;;;59.60;;
37543;SDS011;23385;52.038;20.322;2022-10-15T00:27:32;132.13;;;62.40;;
37543;SDS011;23385;52.038;20.322;2022-10-15T00:30:00;113.73;;;63.27;;
37543;SDS011;23385;52.038;20.322;2022-10-15T00:32:27;118.13;;;65.60;;
37543;SDS011;23385;52.038;20.322;2022-10-15T00:34:54;127.37;;;65.10;;
37543;SDS011;23385;52.038;20.322;2022-10-15T00:37:20;108.13;;;61.63;;
37543;SDS011;23385;52.038;20.322;2022-10-15T00:39:46;151.87;;;73.13;;
37543;SDS011;23385;52.038;20.322;2022-10-15T00:42:13;149.67;;;71.23;;
37543;SDS011;23385;52.038;20.322;2022-10-15T00:44:46;124.30;;;67.73;;
37543;SDS011;23385;52.038;20.322;2022-10-15T00:47:27;112.90;;;64.00;;
37543;SDS011;23385;52.038;20.322;2022-10-15T00:50:23;105.50;;;61.13;;
37543;SDS011;23385;52.038;20.322;2022-10-15T00:55:34;114.97;;;63.30;;
37543;SDS011;23385;52.038;20.322;2022-10-15T00:58:12;106.70;;;59.53;;
37543;SDS011;23385;52.038;20.322;2022-10-15T01:00:40;91.33;;;57.00;;
37543;SDS011;23385;52.038;20.322;2022-10-15T01:03:07;99.90;;;56.80;;
37543;SDS011;23385;52.038;20.322;2022-10-15T01:05:34;106.93;;;60.80;;
37543;SDS011;23385;52.038;20.322;2022-10-15T01:08:02;109.93;;;61.57;;
37543;SDS011;23385;52.038;20.322;2022-10-15T01:10:35;119.23;;;65.83;;
37543;SDS011;23385;52.038;20.322;2022-10-15T01:21:10;95.80;;;57.47;;
37543;SDS011;23385;52.038;20.322;2022-10-15T01:29:46;134.43;;;71.03;;
37543;SDS011;23385;52.038;20.322;2022-10-15T01:32:26;117.40;;;66.93;;
37543;SDS011;23385;52.038;20.322;2022-10-15T01:37:54;119.57;;;67.97;;
37543;SDS011;23385;52.038;20.322;2022-10-15T01:43:03;107.93;;;64.77;;
37543;SDS011;23385;52.038;20.322;2022-10-15T01:45:37;120.70;;;61.27;;
37543;SDS011;23385;52.038;20.322;2022-10-15T01:48:12;120.63;;;64.23;;
37543;SDS011;23385;52.038;20.322;2022-10-15T01:50:41;114.00;;;63.07;;
37543;SDS011;23385;52.038;20.322;2022-10-15T01:53:15;110.77;;;64.83;;
37543;SDS011;23385;52.038;20.322;2022-10-15T01:55:50;112.73;;;62.37;;
37543;SDS011;23385;52.038;20.322;2022-10-15T01:58:27;109.27;;;62.27;;
37543;SDS011;23385;52.038;20.322;2022-10-15T02:00:54;131.17;;;66.57;;
37543;SDS011;23385;52.038;20.322;2022-10-15T02:03:22;120.40;;;64.87;;
37543;SDS011;23385;52.038;20.322;2022-10-15T02:06:07;120.23;;;66.47;;
37543;SDS011;23385;52.038;20.322;2022-10-15T02:08:42;119.57;;;65.93;;
37543;SDS011;23385;52.038;20.322;2022-10-15T02:11:30;101.03;;;61.30;;
37543;SDS011;23385;52.038;20.322;2022-10-15T02:21:58;121.93;;;66.57;;
37543;SDS011;23385;52.038;20.322;2022-10-15T02:24:31;127.50;;;66.50;;
37543;SDS011;23385;52.038;20.322;2022-10-15T02:27:03;119.97;;;64.60;;
37543;SDS011;23385;52.038;20.322;2022-10-15T02:29:32;135.90;;;68.80;;
37543;SDS011;23385;52.038;20.322;2022-10-15T02:32:06;148.27;;;71.13;;
37543;SDS011;23385;52.038;20.322;2022-10-15T02:34:34;130.23;;;66.43;;
37543;SDS011;23385;52.038;20.322;2022-10-15T02:37:02;145.10;;;71.60;;
37543;SDS011;23385;52.038;20.322;2022-10-15T02:39:30;124.63;;;68.37;;
37543;SDS011;23385;52.038;20.322;2022-10-15T02:42:01;120.57;;;63.57;;
37543;SDS011;23385;52.038;20.322;2022-10-15T02:44:28;121.20;;;64.73;;
37543;SDS011;23385;52.038;20.322;2022-10-15T02:46:58;122.17;;;66.57;;
37543;SDS011;23385;52.038;20.322;2022-10-15T02:49:34;113.10;;;62.57;;
37543;SDS011;23385;52.038;20.322;2022-10-15T02:52:00;119.97;;;64.10;;
37543;SDS011;23385;52.038;20.322;2022-10-15T02:54:27;122.47;;;65.47;;
37543;SDS011;23385;52.038;20.322;2022-10-15T02:56:53;107.63;;;61.80;;
37543;SDS011;23385;52.038;20.322;2022-10-15T02:59:19;115.20;;;62.13;;
37543;SDS011;23385;52.038;20.322;2022-10-15T03:01:48;114.93;;;61.77;;
37543;SDS011;23385;52.038;20.322;2022-10-15T03:07:05;105.47;;;58.97;;
37543;SDS011;23385;52.038;20.322;2022-10-15T03:09:32;99.37;;;58.93;;
37543;SDS011;23385;52.038;20.322;2022-10-15T03:12:01;105.87;;;58.77;;
37543;SDS011;23385;52.038;20.322;2022-10-15T03:14:36;99.77;;;56.90;;
37543;SDS011;23385;52.038;20.322;2022-10-15T03:17:09;104.57;;;59.03;;
37543;SDS011;23385;52.038;20.322;2022-10-15T03:19:34;94.97;;;59.47;;
37543;SDS011;23385;52.038;20.322;2022-10-15T03:22:01;105.90;;;59.37;;
37543;SDS011;23385;52.038;20.322;2022-10-15T03:24:30;103.27;;;57.90;;
37543;SDS011;23385;52.038;20.322;2022-10-15T03:27:00;100.47;;;58.83;;
37543;SDS011;23385;52.038;20.322;2022-10-15T03:29:53;98.73;;;56.57;;
37543;SDS011;23385;52.038;20.322;2022-10-15T03:32:25;101.27;;;56.00;;
37543;SDS011;23385;52.038;20.322;2022-10-15T03:35:01;95.47;;;56.53;;
37543;SDS011;23385;52.038;20.322;2022-10-15T03:39:56;96.17;;;56.30;;
37543;SDS011;23385;52.038;20.322;2022-10-15T03:42:25;98.30;;;54.83;;
37543;SDS011;23385;52.038;20.322;2022-10-15T03:44:52;90.10;;;55.87;;
37543;SDS011;23385;52.038;20.322;2022-10-15T03:47:35;87.57;;;53.63;;
37543;SDS011;23385;52.038;20.322;2022-10-15T03:50:02;85.07;;;54.43;;
37543;SDS011;23385;52.038;20.322;2022-10-15T03:52:30;82.93;;;53.60;;
37543;SDS011;23385;52.038;20.322;2022-10-15T03:55:17;92.87;;;53.03;;
37543;SDS011;23385;52.038;20.322;2022-10-15T03:57:43;82.93;;;52.90;;
37543;SDS011;23385;52.038;20.322;2022-10-15T04:00:10;81.03;;;53.60;;
37543;SDS011;23385;52.038;20.322;2022-10-15T04:02:40;82.07;;;52.80;;
37543;SDS011;23385;52.038;20.322;2022-10-15T04:05:11;84.53;;;52.07;;
37543;SDS011;23385;52.038;20.322;2022-10-15T04:10:49;75.23;;;49.47;;
37543;SDS011;23385;52.038;20.322;2022-10-15T04:13:18;78.07;;;50.40;;
37543;SDS011;23385;52.038;20.322;2022-10-15T04:15:47;80.50;;;51.10;;
37543;SDS011;23385;52.038;20.322;2022-10-15T04:18:14;81.40;;;49.30;;
37543;SDS011;23385;52.038;20.322;2022-10-15T04:21:02;77.40;;;49.10;;
37543;SDS011;23385;52.038;20.322;2022-10-15T04:23:28;79.63;;;49.87;;
37543;SDS011;23385;52.038;20.322;2022-10-15T04:25:57;77.80;;;49.13;;
37543;SDS011;23385;52.038;20.322;2022-10-15T04:28:32;77.50;;;49.33;;
37543;SDS011;23385;52.038;20.322;2022-10-15T04:30:58;76.73;;;48.73;;
37543;SDS011;23385;52.038;20.322;2022-10-15T04:33:26;78.57;;;49.27;;
37543;SDS011;23385;52.038;20.322;2022-10-15T04:36:05;73.07;;;47.93;;
37543;SDS011;23385;52.038;20.322;2022-10-15T04:38:33;76.50;;;48.33;;
37543;SDS011;23385;52.038;20.322;2022-10-15T04:41:07;72.03;;;48.33;;
37543;SDS011;23385;52.038;20.322;2022-10-15T04:43:36;70.10;;;47.33;;
37543;SDS011;23385;52.038;20.322;2022-10-15T04:46:07;80.03;;;48.80;;
37543;SDS011;23385;52.038;20.322;2022-10-15T04:51:44;72.50;;;46.63;;
37543;SDS011;23385;52.038;20.322;2022-10-15T04:54:11;74.97;;;46.57;;
37543;SDS011;23385;52.038;20.322;2022-10-15T04:56:52;71.07;;;46.00;;
37543;SDS011;23385;52.038;20.322;2022-10-15T04:59:23;74.80;;;46.50;;
37543;SDS011;23385;52.038;20.322;2022-10-15T05:01:49;73.97;;;46.43;;
37543;SDS011;23385;52.038;20.322;2022-10-15T05:04:15;70.27;;;45.70;;
37543;SDS011;23385;52.038;20.322;2022-10-15T05:06:41;76.83;;;46.53;;
37543;SDS011;23385;52.038;20.322;2022-10-15T05:09:06;68.43;;;44.53;;
37543;SDS011;23385;52.038;20.322;2022-10-15T05:11:34;73.70;;;45.43;;
37543;SDS011;23385;52.038;20.322;2022-10-15T05:14:02;69.23;;;44.93;;
37543;SDS011;23385;52.038;20.322;2022-10-15T05:16:28;66.33;;;44.23;;
37543;SDS011;23385;52.038;20.322;2022-10-15T05:18:56;68.73;;;46.00;;
37543;SDS011;23385;52.038;20.322;2022-10-15T05:21:26;68.60;;;45.50;;
37543;SDS011;23385;52.038;20.322;2022-10-15T05:23:55;66.00;;;44.30;;
37543;SDS011;23385;52.038;20.322;2022-10-15T05:26:23;66.43;;;43.93;;
37543;SDS011;23385;52.038;20.322;2022-10-15T05:28:50;68.67;;;44.60;;
37543;SDS011;23385;52.038;20.322;2022-10-15T05:31:20;66.87;;;44.87;;
37543;SDS011;23385;52.038;20.322;2022-10-15T05:33:48;70.53;;;45.47;;
37543;SDS011;23385;52.038;20.322;2022-10-15T05:36:22;67.47;;;43.43;;
37543;SDS011;23385;52.038;20.322;2022-10-15T05:38:53;63.20;;;43.90;;
37543;SDS011;23385;52.038;20.322;2022-10-15T05:41:25;65.50;;;42.97;;
37543;SDS011;23385;52.038;20.322;2022-10-15T05:43:55;68.37;;;43.37;;
37543;SDS011;23385;52.038;20.322;2022-10-15T05:46:22;64.67;;;42.57;;
37543;SDS011;23385;52.038;20.322;2022-10-15T05:48:54;65.43;;;42.53;;
37543;SDS011;23385;52.038;20.322;2022-10-15T05:51:25;70.40;;;42.23;;
37543;SDS011;23385;52.038;20.322;2022-10-15T05:53:54;67.03;;;41.10;;
37543;SDS011;23385;52.038;20.322;2022-10-15T05:56:22;61.00;;;42.00;;
37543;SDS011;23385;52.038;20.322;2022-10-15T05:58:54;63.63;;;42.53;;
37543;SDS011;23385;52.038;20.322;2022-10-15T06:01:27;64.43;;;43.23;;
37543;SDS011;23385;52.038;20.322;2022-10-15T06:03:53;68.40;;;44.17;;
37543;SDS011;23385;52.038;20.322;2022-10-15T06:06:23;67.40;;;43.13;;
37543;SDS011;23385;52.038;20.322;2022-10-15T06:08:53;61.80;;;40.60;;
37543;SDS011;23385;52.038;20.322;2022-10-15T06:11:22;64.00;;;42.40;;
37543;SDS011;23385;52.038;20.322;2022-10-15T06:13:54;62.33;;;42.27;;
37543;SDS011;23385;52.038;20.322;2022-10-15T06:16:20;63.80;;;41.60;;
37543;SDS011;23385;52.038;20.322;2022-10-15T06:18:48;59.47;;;40.07;;
37543;SDS011;23385;52.038;20.322;2022-10-15T06:21:16;60.77;;;41.40;;
37543;SDS011;23385;52.038;20.322;2022-10-15T06:23:43;61.03;;;39.53;;
37543;SDS011;23385;52.038;20.322;2022-10-15T06:26:09;57.17;;;38.50;;
37543;SDS011;23385;52.038;20.322;2022-10-15T06:28:44;57.97;;;39.53;;
37543;SDS011;23385;52.038;20.322;2022-10-15T06:31:10;56.13;;;38.97;;
37543;SDS011;23385;52.038;20.322;2022-10-15T06:33:37;57.47;;;38.43;;
37543;SDS011;23385;52.038;20.322;2022-10-15T06:36:04;52.77;;;37.77;;
37543;SDS011;23385;52.038;20.322;2022-10-15T06:38:32;53.60;;;38.33;;
37543;SDS011;23385;52.038;20.322;2022-10-15T06:41:08;50.83;;;35.70;;
37543;SDS011;23385;52.038;20.322;2022-10-15T06:44:00;53.80;;;37.67;;
37543;SDS011;23385;52.038;20.322;2022-10-15T06:46:47;52.10;;;37.53;;
37543;SDS011;23385;52.038;20.322;2022-10-15T06:49:13;50.83;;;36.70;;
37543;SDS011;23385;52.038;20.322;2022-10-15T06:51:40;50.37;;;36.37;;
37543;SDS011;23385;52.038;20.322;2022-10-15T06:54:18;50.80;;;36.77;;
37543;SDS011;23385;52.038;20.322;2022-10-15T06:56:47;51.40;;;35.50;;
37543;SDS011;23385;52.038;20.322;2022-10-15T06:59:27;50.07;;;35.73;;
37543;SDS011;23385;52.038;20.322;2022-10-15T07:01:56;44.63;;;33.60;;
37543;SDS011;23385;52.038;20.322;2022-10-15T07:04:33;45.17;;;33.07;;
37543;SDS011;23385;52.038;20.322;2022-10-15T07:06:59;48.77;;;35.27;;
37543;SDS011;23385;52.038;20.322;2022-10-15T07:09:25;43.73;;;33.07;;
37543;SDS011;23385;52.038;20.322;2022-10-15T07:11:51;45.70;;;33.77;;
37543;SDS011;23385;52.038;20.322;2022-10-15T07:14:18;45.57;;;32.43;;
37543;SDS011;23385;52.038;20.322;2022-10-15T07:16:45;43.03;;;32.33;;
37543;SDS011;23385;52.038;20.322;2022-10-15T07:19:13;44.20;;;30.47;;
37543;SDS011;23385;52.038;20.322;2022-10-15T07:21:40;44.20;;;31.77;;
37543;SDS011;23385;52.038;20.322;2022-10-15T07:24:06;42.90;;;31.77;;
37543;SDS011;23385;52.038;20.322;2022-10-15T07:26:33;44.83;;;31.00;;
37543;SDS011;23385;52.038;20.322;2022-10-15T07:29:02;40.43;;;30.70;;
37543;SDS011;23385;52.038;20.322;2022-10-15T07:31:28;42.93;;;30.33;;
37543;SDS011;23385;52.038;20.322;2022-10-15T07:33:55;40.40;;;30.30;;
37543;SDS011;23385;52.038;20.322;2022-10-15T07:36:42;37.73;;;30.03;;
37543;SDS011;23385;52.038;20.322;2022-10-15T07:39:12;44.03;;;31.03;;
37543;SDS011;23385;52.038;20.322;2022-10-15T07:41:38;37.67;;;26.90;;
37543;SDS011;23385;52.038;20.322;2022-10-15T07:44:06;40.33;;;27.73;;
37543;SDS011;23385;52.038;20.322;2022-10-15T07:46:32;34.03;;;26.87;;
37543;SDS011;23385;52.038;20.322;2022-10-15T07:49:11;36.00;;;27.80;;
37543;SDS011;23385;52.038;20.322;2022-10-15T07:51:37;35.13;;;27.37;;
37543;SDS011;23385;52.038;20.322;2022-10-15T07:54:03;37.67;;;27.63;;
37543;SDS011;23385;52.038;20.322;2022-10-15T07:56:31;32.20;;;26.00;;
37543;SDS011;23385;52.038;20.322;2022-10-15T07:58:58;32.93;;;26.30;;
37543;SDS011;23385;52.038;20.322;2022-10-15T08:01:28;32.80;;;26.67;;
37543;SDS011;23385;52.038;20.322;2022-10-15T08:03:55;31.00;;;25.73;;
37543;SDS011;23385;52.038;20.322;2022-10-15T08:06:21;37.60;;;24.43;;
37543;SDS011;23385;52.038;20.322;2022-10-15T08:08:54;32.97;;;25.03;;
37543;SDS011;23385;52.038;20.322;2022-10-15T08:11:25;33.17;;;25.23;;
37543;SDS011;23385;52.038;20.322;2022-10-15T08:14:03;31.07;;;24.27;;
37543;SDS011;23385;52.038;20.322;2022-10-15T08:16:51;29.73;;;24.13;;
37543;SDS011;23385;52.038;20.322;2022-10-15T08:19:19;32.87;;;24.87;;
37543;SDS011;23385;52.038;20.322;2022-10-15T08:21:47;29.70;;;23.03;;
37543;SDS011;23385;52.038;20.322;2022-10-15T08:24:17;30.07;;;23.20;;
37543;SDS011;23385;52.038;20.322;2022-10-15T08:26:44;29.17;;;23.13;;
37543;SDS011;23385;52.038;20.322;2022-10-15T08:29:16;28.47;;;23.07;;
37543;SDS011;23385;52.038;20.322;2022-10-15T08:31:42;29.70;;;21.90;;
37543;SDS011;23385;52.038;20.322;2022-10-15T08:34:23;27.43;;;22.03;;
37543;SDS011;23385;52.038;20.322;2022-10-15T08:36:51;27.07;;;22.00;;
37543;SDS011;23385;52.038;20.322;2022-10-15T08:39:18;29.33;;;22.77;;
37543;SDS011;23385;52.038;20.322;2022-10-15T08:41:52;28.07;;;21.37;;
37543;SDS011;23385;52.038;20.322;2022-10-15T08:47:03;25.63;;;20.57;;
37543;SDS011;23385;52.038;20.322;2022-10-15T08:49:49;26.73;;;21.10;;
37543;SDS011;23385;52.038;20.322;2022-10-15T08:52:42;26.73;;;22.37;;
37543;SDS011;23385;52.038;20.322;2022-10-15T08:55:11;27.20;;;20.27;;
37543;SDS011;23385;52.038;20.322;2022-10-15T09:00:34;22.53;;;19.63;;
37543;SDS011;23385;52.038;20.322;2022-10-15T09:06:14;27.07;;;20.73;;
37543;SDS011;23385;52.038;20.322;2022-10-15T09:09:27;32.70;;;21.30;;
37543;SDS011;23385;52.038;20.322;2022-10-15T09:12:52;25.33;;;20.40;;
37543;SDS011;23385;52.038;20.322;2022-10-15T09:15:31;26.23;;;21.07;;
37543;SDS011;23385;52.038;20.322;2022-10-15T09:18:11;27.30;;;20.20;;
37543;SDS011;23385;52.038;20.322;2022-10-15T09:20:45;29.37;;;21.07;;
37543;SDS011;23385;52.038;20.322;2022-10-15T09:23:16;26.13;;;21.47;;
37543;SDS011;23385;52.038;20.322;2022-10-15T09:25:44;24.90;;;20.03;;
37543;SDS011;23385;52.038;20.322;2022-10-15T09:28:21;28.80;;;20.80;;
37543;SDS011;23385;52.038;20.322;2022-10-15T09:30:55;28.80;;;21.77;;
37543;SDS011;23385;52.038;20.322;2022-10-15T09:33:34;26.10;;;20.73;;
37543;SDS011;23385;52.038;20.322;2022-10-15T09:36:57;23.30;;;20.23;;
37543;SDS011;23385;52.038;20.322;2022-10-15T09:39:42;27.50;;;20.63;;
37543;SDS011;23385;52.038;20.322;2022-10-15T09:42:23;25.87;;;19.80;;
37543;SDS011;23385;52.038;20.322;2022-10-15T09:45:07;23.60;;;20.30;;
37543;SDS011;23385;52.038;20.322;2022-10-15T09:47:40;25.17;;;20.67;;
37543;SDS011;23385;52.038;20.322;2022-10-15T09:50:39;23.17;;;19.23;;
37543;SDS011;23385;52.038;20.322;2022-10-15T09:53:17;22.93;;;19.80;;
37543;SDS011;23385;52.038;20.322;2022-10-15T09:55:55;22.50;;;19.67;;
37543;SDS011;23385;52.038;20.322;2022-10-15T09:58:40;23.67;;;20.30;;
37543;SDS011;23385;52.038;20.322;2022-10-15T10:01:20;23.92;;;19.10;;
37543;SDS011;23385;52.038;20.322;2022-10-15T10:04:08;24.05;;;19.17;;
37543;SDS011;23385;52.038;20.322;2022-10-15T10:06:43;22.35;;;19.48;;
37543;SDS011;23385;52.038;20.322;2022-10-15T10:09:19;23.90;;;18.92;;
37543;SDS011;23385;52.038;20.322;2022-10-15T10:11:48;25.80;;;19.23;;
37543;SDS011;23385;52.038;20.322;2022-10-15T10:14:23;20.35;;;18.10;;
37543;SDS011;23385;52.038;20.322;2022-10-15T10:17:04;21.42;;;17.73;;
37543;SDS011;23385;52.038;20.322;2022-10-15T10:22:45;22.00;;;17.60;;
37543;SDS011;23385;52.038;20.322;2022-10-15T10:30:47;24.45;;;18.13;;
37543;SDS011;23385;52.038;20.322;2022-10-15T10:33:20;22.58;;;18.20;;
37543;SDS011;23385;52.038;20.322;2022-10-15T10:36:17;23.33;;;17.38;;
37543;SDS011;23385;52.038;20.322;2022-10-15T10:38:57;19.45;;;17.10;;
37543;SDS011;23385;52.038;20.322;2022-10-15T10:41:54;20.02;;;16.92;;
37543;SDS011;23385;52.038;20.322;2022-10-15T10:47:11;26.60;;;18.73;;
37543;SDS011;23385;52.038;20.322;2022-10-15T10:49:53;24.50;;;19.35;;
37543;SDS011;23385;52.038;20.322;2022-10-15T10:52:23;22.15;;;18.05;;
37543;SDS011;23385;52.038;20.322;2022-10-15T11:00:20;26.70;;;17.50;;
37543;SDS011;23385;52.038;20.322;2022-10-15T11:02:59;19.02;;;17.02;;
37543;SDS011;23385;52.038;20.322;2022-10-15T11:05:26;22.33;;;17.23;;
37543;SDS011;23385;52.038;20.322;2022-10-15T11:08:08;22.13;;;18.45;;
37543;SDS011;23385;52.038;20.322;2022-10-15T11:10:45;21.10;;;18.30;;
37543;SDS011;23385;52.038;20.322;2022-10-15T11:13:57;21.00;;;18.15;;
37543;SDS011;23385;52.038;20.322;2022-10-15T11:16:47;21.98;;;17.98;;
37543;SDS011;23385;52.038;20.322;2022-10-15T11:28:14;24.05;;;19.00;;
37543;SDS011;23385;52.038;20.322;2022-10-15T11:31:38;23.70;;;20.02;;
37543;SDS011;23385;52.038;20.322;2022-10-15T11:40:20;26.55;;;19.83;;
37543;SDS011;23385;52.038;20.322;2022-10-15T11:42:59;24.92;;;19.27;;
37543;SDS011;23385;52.038;20.322;2022-10-15T11:48:39;22.38;;;18.58;;
37543;SDS011;23385;52.038;20.322;2022-10-15T11:56:49;23.40;;;19.63;;
37543;SDS011;23385;52.038;20.322;2022-10-15T12:02:21;23.75;;;19.45;;
37543;SDS011;23385;52.038;20.322;2022-10-15T12:04:53;25.00;;;20.15;;
37543;SDS011;23385;52.038;20.322;2022-10-15T12:07:26;25.65;;;19.10;;
37543;SDS011;23385;52.038;20.322;2022-10-15T12:10:00;22.67;;;18.45;;
37543;SDS011;23385;52.038;20.322;2022-10-15T12:21:00;21.75;;;19.45;;
37543;SDS011;23385;52.038;20.322;2022-10-15T12:23:47;22.90;;;19.02;;
37543;SDS011;23385;52.038;20.322;2022-10-15T12:28:55;26.50;;;19.30;;
37543;SDS011;23385;52.038;20.322;2022-10-15T12:31:23;26.63;;;19.42;;
37543;SDS011;23385;52.038;20.322;2022-10-15T12:39:04;20.95;;;17.77;;
37543;SDS011;23385;52.038;20.322;2022-10-15T12:42:00;23.10;;;20.05;;
37543;SDS011;23385;52.038;20.322;2022-10-15T12:44:30;21.92;;;19.52;;
37543;SDS011;23385;52.038;20.322;2022-10-15T12:46:59;26.05;;;18.80;;
37543;SDS011;23385;52.038;20.322;2022-10-15T12:51:51;21.42;;;18.60;;
37543;SDS011;23385;52.038;20.322;2022-10-15T12:54:34;24.20;;;18.52;;
37543;SDS011;23385;52.038;20.322;2022-10-15T12:57:10;23.50;;;17.38;;
37543;SDS011;23385;52.038;20.322;2022-10-15T13:02:47;24.70;;;15.68;;
37543;SDS011;23385;52.038;20.322;2022-10-15T13:05:26;24.13;;;15.75;;
37543;SDS011;23385;52.038;20.322;2022-10-15T13:07:54;25.50;;;16.17;;
37543;SDS011;23385;52.038;20.322;2022-10-15T13:10:23;19.52;;;16.73;;
37543;SDS011;23385;52.038;20.322;2022-10-15T13:12:54;24.25;;;15.85;;
37543;SDS011;23385;52.038;20.322;2022-10-15T13:15:25;25.95;;;15.80;;
37543;SDS011;23385;52.038;20.322;2022-10-15T13:17:56;22.95;;;17.00;;
37543;SDS011;23385;52.038;20.322;2022-10-15T13:23:06;19.30;;;16.85;;
37543;SDS011;23385;52.038;20.322;2022-10-15T13:25:33;24.00;;;17.15;;
37543;SDS011;23385;52.038;20.322;2022-10-15T13:28:01;23.65;;;17.10;;
37543;SDS011;23385;52.038;20.322;2022-10-15T13:30:27;18.75;;;15.77;;
37543;SDS011;23385;52.038;20.322;2022-10-15T13:32:54;19.52;;;14.90;;
37543;SDS011;23385;52.038;20.322;2022-10-15T13:35:26;17.50;;;14.70;;
37543;SDS011;23385;52.038;20.322;2022-10-15T13:37:59;19.50;;;14.87;;
37543;SDS011;23385;52.038;20.322;2022-10-15T13:40:28;17.80;;;15.50;;
37543;SDS011;23385;52.038;20.322;2022-10-15T13:42:59;22.53;;;15.33;;
37543;SDS011;23385;52.038;20.322;2022-10-15T13:45:26;19.48;;;15.07;;
37543;SDS011;23385;52.038;20.322;2022-10-15T13:47:53;19.80;;;15.67;;
37543;SDS011;23385;52.038;20.322;2022-10-15T13:55:48;22.73;;;15.50;;
37543;SDS011;23385;52.038;20.322;2022-10-15T13:58:19;22.67;;;15.70;;
37543;SDS011;23385;52.038;20.322;2022-10-15T14:01:34;21.47;;;15.40;;
37543;SDS011;23385;52.038;20.322;2022-10-15T14:03:36;27.98;;;17.25;;
37543;SDS011;23385;52.038;20.322;2022-10-15T14:08:55;21.33;;;16.38;;
37543;SDS011;23385;52.038;20.322;2022-10-15T14:11:23;20.80;;;16.50;;
37543;SDS011;23385;52.038;20.322;2022-10-15T14:13:54;18.45;;;15.50;;
37543;SDS011;23385;52.038;20.322;2022-10-15T14:16:42;24.38;;;16.85;;
37543;SDS011;23385;52.038;20.322;2022-10-15T14:19:15;33.17;;;16.80;;
37543;SDS011;23385;52.038;20.322;2022-10-15T14:21:45;23.02;;;16.42;;
37543;SDS011;23385;52.038;20.322;2022-10-15T14:24:20;21.88;;;16.85;;
37543;SDS011;23385;52.038;20.322;2022-10-15T14:30:11;29.67;;;17.48;;
37543;SDS011;23385;52.038;20.322;2022-10-15T14:32:46;21.73;;;16.35;;
37543;SDS011;23385;52.038;20.322;2022-10-15T14:35:23;24.05;;;17.50;;
37543;SDS011;23385;52.038;20.322;2022-10-15T14:38:01;19.98;;;17.85;;
37543;SDS011;23385;52.038;20.322;2022-10-15T14:40:40;26.07;;;18.63;;
37543;SDS011;23385;52.038;20.322;2022-10-15T14:43:30;24.27;;;18.20;;
37543;SDS011;23385;52.038;20.322;2022-10-15T14:46:06;21.30;;;17.65;;
37543;SDS011;23385;52.038;20.322;2022-10-15T14:48:41;23.27;;;18.25;;
37543;SDS011;23385;52.038;20.322;2022-10-15T14:51:17;23.83;;;18.55;;
37543;SDS011;23385;52.038;20.322;2022-10-15T14:53:47;26.77;;;17.97;;
37543;SDS011;23385;52.038;20.322;2022-10-15T14:56:23;27.65;;;18.98;;
37543;SDS011;23385;52.038;20.322;2022-10-15T14:58:54;24.80;;;17.30;;
37543;SDS011;23385;52.038;20.322;2022-10-15T15:01:39;24.37;;;17.03;;
37543;SDS011;23385;52.038;20.322;2022-10-15T15:07:34;28.93;;;18.13;;
37543;SDS011;23385;52.038;20.322;2022-10-15T15:10:01;24.70;;;18.30;;
37543;SDS011;23385;52.038;20.322;2022-10-15T15:12:27;21.53;;;17.73;;
37543;SDS011;23385;52.038;20.322;2022-10-15T15:14:57;21.27;;;17.17;;
37543;SDS011;23385;52.038;20.322;2022-10-15T15:17:23;25.48;;;17.58;;
37543;SDS011;23385;52.038;20.322;2022-10-15T15:19:51;22.47;;;19.10;;
37543;SDS011;23385;52.038;20.322;2022-10-15T15:22:28;26.27;;;20.07;;
37543;SDS011;23385;52.038;20.322;2022-10-15T15:24:59;30.33;;;20.23;;
37543;SDS011;23385;52.038;20.322;2022-10-15T15:27:29;69.10;;;36.97;;
37543;SDS011;23385;52.038;20.322;2022-10-15T15:30:01;53.90;;;38.03;;
37543;SDS011;23385;52.038;20.322;2022-10-15T15:32:28;45.43;;;33.43;;
37543;SDS011;23385;52.038;20.322;2022-10-15T15:34:54;35.13;;;26.27;;
37543;SDS011;23385;52.038;20.322;2022-10-15T15:37:24;33.60;;;24.90;;
37543;SDS011;23385;52.038;20.322;2022-10-15T15:39:50;30.83;;;23.70;;
37543;SDS011;23385;52.038;20.322;2022-10-15T15:42:18;36.90;;;25.60;;
37543;SDS011;23385;52.038;20.322;2022-10-15T15:45:08;64.60;;;37.47;;
37543;SDS011;23385;52.038;20.322;2022-10-15T15:48:11;31.13;;;23.33;;
37543;SDS011;23385;52.038;20.322;2022-10-15T15:51:27;28.60;;;23.67;;
37543;SDS011;23385;52.038;20.322;2022-10-15T15:53:56;40.80;;;26.13;;
37543;SDS011;23385;52.038;20.322;2022-10-15T15:56:22;34.37;;;23.87;;
37543;SDS011;23385;52.038;20.322;2022-10-15T15:58:48;33.60;;;24.13;;
37543;SDS011;23385;52.038;20.322;2022-10-15T16:04:11;29.60;;;23.33;;
37543;SDS011;23385;52.038;20.322;2022-10-15T16:07:01;36.13;;;26.60;;
37543;SDS011;23385;52.038;20.322;2022-10-15T16:09:28;36.90;;;24.73;;
37543;SDS011;23385;52.038;20.322;2022-10-15T16:11:55;36.77;;;26.80;;
37543;SDS011;23385;52.038;20.322;2022-10-15T16:14:21;34.07;;;26.07;;
37543;SDS011;23385;52.038;20.322;2022-10-15T16:16:47;40.03;;;26.57;;
37543;SDS011;23385;52.038;20.322;2022-10-15T16:19:13;34.00;;;27.17;;
37543;SDS011;23385;52.038;20.322;2022-10-15T16:21:39;37.30;;;26.90;;
37543;SDS011;23385;52.038;20.322;2022-10-15T16:24:09;37.00;;;26.83;;
37543;SDS011;23385;52.038;20.322;2022-10-15T16:26:34;36.13;;;27.03;;
37543;SDS011;23385;52.038;20.322;2022-10-15T16:29:00;38.83;;;27.80;;
37543;SDS011;23385;52.038;20.322;2022-10-15T16:31:27;39.40;;;26.97;;
37543;SDS011;23385;52.038;20.322;2022-10-15T16:33:58;40.23;;;28.47;;
37543;SDS011;23385;52.038;20.322;2022-10-15T16:36:24;41.43;;;30.03;;
37543;SDS011;23385;52.038;20.322;2022-10-15T16:38:51;54.57;;;39.87;;
37543;SDS011;23385;52.038;20.322;2022-10-15T16:41:19;53.80;;;40.77;;
37543;SDS011;23385;52.038;20.322;2022-10-15T16:43:45;39.27;;;31.47;;
37543;SDS011;23385;52.038;20.322;2022-10-15T16:46:14;39.10;;;30.53;;
37543;SDS011;23385;52.038;20.322;2022-10-15T16:48:42;42.17;;;32.00;;
37543;SDS011;23385;52.038;20.322;2022-10-15T16:51:11;44.20;;;30.00;;
37543;SDS011;23385;52.038;20.322;2022-10-15T16:53:40;41.03;;;30.80;;